createdAt,value
2017-10-19T00:02:01.155Z,97.10
2017-10-19T00:04:29.551Z,97.00
2017-10-19T00:06:57.926Z,96.90
2017-10-19T00:09:26.314Z,96.60
2017-10-19T00:11:54.682Z,96.50
2017-10-19T00:14:23.073Z,96.70
2017-10-19T00:16:51.456Z,96.60
2017-10-19T00:19:20.631Z,96.90
2017-10-19T00:21:49.003Z,96.80
2017-10-19T00:24:17.416Z,97.10
2017-10-19T00:26:46.560Z,97.70
2017-10-19T00:29:14.934Z,97.60
2017-10-19T00:31:43.359Z,98.10
2017-10-19T00:34:11.738Z,98.80
2017-10-19T00:36:40.140Z,99.00
2017-10-19T00:39:09.330Z,99.20
2017-10-19T00:41:37.731Z,99.20
2017-10-19T00:44:06.875Z,98.70
2017-10-19T00:46:35.274Z,98.80
2017-10-19T00:49:03.655Z,98.90
2017-10-19T00:51:32.056Z,99.10
2017-10-19T00:54:01.202Z,98.30
2017-10-19T00:56:29.631Z,98.30
2017-10-19T00:58:59.516Z,97.40
2017-10-19T01:01:27.924Z,97.30
2017-10-19T01:03:57.069Z,96.70
2017-10-19T01:06:25.657Z,96.70
2017-10-19T01:08:54.031Z,96.70
2017-10-19T01:11:22.415Z,96.50
2017-10-19T01:13:50.823Z,96.50
2017-10-19T01:16:19.194Z,96.50
2017-10-19T01:18:47.856Z,96.50
2017-10-19T01:21:16.232Z,96.60
2017-10-19T01:23:44.618Z,97.00
2017-10-19T01:26:13.022Z,96.80
2017-10-19T01:28:41.400Z,96.60
2017-10-19T01:31:10.037Z,96.90
2017-10-19T01:33:38.413Z,96.40
2017-10-19T01:36:06.826Z,96.20
2017-10-19T01:38:35.223Z,96.90
2017-10-19T01:41:03.603Z,96.70
2017-10-19T01:43:32.373Z,97.10
2017-10-19T01:46:00.762Z,97.30
2017-10-19T01:48:29.149Z,97.00
2017-10-19T01:50:57.555Z,96.70
2017-10-19T01:53:25.928Z,96.40
2017-10-19T01:55:54.358Z,96.50
2017-10-19T01:58:22.739Z,96.30
2017-10-19T02:00:51.234Z,96.20
2017-10-19T02:03:19.621Z,96.50
2017-10-19T02:05:47.998Z,96.60
2017-10-19T02:08:16.534Z,96.10
2017-10-19T02:10:44.914Z,96.40
2017-10-19T02:13:13.310Z,97.30
2017-10-19T02:15:41.734Z,97.00
2017-10-19T02:18:10.890Z,97.60
2017-10-19T02:20:39.662Z,97.60
2017-10-19T02:23:08.030Z,98.00
2017-10-19T02:25:36.405Z,98.00
2017-10-19T02:28:04.802Z,97.90
2017-10-19T02:30:33.176Z,98.10
2017-10-19T02:33:01.579Z,97.90
2017-10-19T02:35:29.958Z,97.50
2017-10-19T02:37:58.810Z,97.40
2017-10-19T02:40:27.179Z,97.40
2017-10-19T02:42:55.552Z,97.60
2017-10-19T02:45:23.938Z,97.50
2017-10-19T02:47:52.305Z,97.70
2017-10-19T02:50:21.021Z,97.40
2017-10-19T02:52:49.387Z,97.40
2017-10-19T02:55:17.767Z,97.40
2017-10-19T02:57:46.339Z,96.60
2017-10-19T03:00:14.738Z,96.20
2017-10-19T03:02:43.162Z,96.40
2017-10-19T03:05:12.316Z,97.00
2017-10-19T03:07:40.796Z,97.00
2017-10-19T03:10:09.164Z,96.80
2017-10-19T03:12:37.530Z,96.90
2017-10-19T03:15:05.958Z,96.60
2017-10-19T03:17:34.338Z,96.70
2017-10-19T03:20:03.745Z,96.50
2017-10-19T03:22:32.128Z,96.40
2017-10-19T03:25:00.506Z,96.50
2017-10-19T03:27:29.678Z,96.50
2017-10-19T03:29:58.051Z,96.50
2017-10-19T03:32:26.622Z,96.60
2017-10-19T03:34:54.988Z,96.50
2017-10-19T03:37:23.363Z,96.70
2017-10-19T03:39:51.770Z,96.70
2017-10-19T03:42:20.139Z,96.60
2017-10-19T03:44:48.565Z,96.50
2017-10-19T03:47:17.702Z,96.20
2017-10-19T03:49:46.992Z,96.20
2017-10-19T03:52:15.383Z,96.30
2017-10-19T03:54:43.758Z,96.40
2017-10-19T03:57:12.360Z,96.70
2017-10-19T03:59:40.757Z,97.00
2017-10-19T04:02:09.130Z,97.10
2017-10-19T04:04:37.529Z,96.90
2017-10-19T04:07:05.908Z,96.70
2017-10-19T04:09:34.323Z,96.70
2017-10-19T04:12:02.696Z,96.90
2017-10-19T04:14:31.112Z,97.30
2017-10-19T04:16:59.508Z,97.70
2017-10-19T04:19:28.651Z,98.50
2017-10-19T04:21:57.230Z,98.20
2017-10-19T04:24:25.620Z,98.30
2017-10-19T04:26:53.990Z,98.50
2017-10-19T04:29:22.383Z,98.50
2017-10-19T04:31:50.762Z,98.90
2017-10-19T04:34:19.315Z,98.20
2017-10-19T04:36:48.450Z,98.10
2017-10-19T04:39:16.837Z,98.10
2017-10-19T04:41:45.237Z,98.30
2017-10-19T04:44:13.609Z,98.50
2017-10-19T04:46:42.124Z,98.50
2017-10-19T04:49:11.264Z,98.80
2017-10-19T04:51:39.663Z,98.70
2017-10-19T04:54:08.827Z,99.20
2017-10-19T04:56:37.296Z,99.20
2017-10-19T04:59:05.915Z,98.70
2017-10-19T05:01:34.309Z,98.50
2017-10-19T05:04:02.688Z,98.30
2017-10-19T05:06:31.083Z,98.20
2017-10-19T05:08:59.455Z,97.90
2017-10-19T05:11:27.938Z,97.20
2017-10-19T05:13:56.315Z,96.80
2017-10-19T05:16:24.691Z,96.30
2017-10-19T05:18:53.098Z,96.10
2017-10-19T05:21:22.238Z,96.60
2017-10-19T05:23:50.651Z,96.60
2017-10-19T05:26:19.036Z,96.70
2017-10-19T05:28:47.406Z,96.70
2017-10-19T05:31:16.704Z,96.80
2017-10-19T05:33:45.088Z,96.60
2017-10-19T05:36:13.495Z,96.50
2017-10-19T05:38:41.872Z,96.50
2017-10-19T05:41:11.197Z,96.60
2017-10-19T05:43:39.594Z,96.60
2017-10-19T05:46:07.973Z,96.60
2017-10-19T05:48:36.506Z,96.90
2017-10-19T05:51:05.656Z,97.70
2017-10-19T05:53:34.032Z,97.70
2017-10-19T05:56:02.449Z,98.00
2017-10-19T05:58:31.586Z,97.30
2017-10-19T06:01:00.013Z,97.30
2017-10-19T06:03:28.455Z,96.60
2017-10-19T06:05:56.832Z,96.30
2017-10-19T06:08:25.231Z,96.30
2017-10-19T06:10:53.695Z,95.90
2017-10-19T06:13:22.578Z,94.70
2017-10-19T06:15:50.950Z,94.20
2017-10-19T06:18:19.327Z,94.20
2017-10-19T06:20:47.727Z,94.50
2017-10-19T06:23:16.111Z,95.30
2017-10-19T06:25:44.678Z,95.50
2017-10-19T06:28:13.055Z,95.30
2017-10-19T06:30:41.760Z,94.50
2017-10-19T06:33:10.171Z,92.90
2017-10-19T06:35:39.313Z,91.70
2017-10-19T06:38:07.747Z,91.70
2017-10-19T06:40:36.899Z,90.00
2017-10-19T06:43:05.271Z,90.00
2017-10-19T06:45:33.671Z,88.80
2017-10-19T06:48:02.058Z,87.90
2017-10-19T06:50:30.463Z,84.90
2017-10-19T06:52:59.622Z,80.70
2017-10-19T06:55:28.043Z,80.70
2017-10-19T06:57:57.192Z,74.00
2017-10-19T07:00:24.992Z,74.00
2017-10-19T07:02:54.143Z,68.10
2017-10-19T07:05:22.561Z,68.00
2017-10-19T07:07:51.730Z,65.30
2017-10-19T07:10:20.111Z,65.20
2017-10-19T07:12:48.747Z,63.80
2017-10-19T07:15:17.141Z,61.90
2017-10-19T07:17:45.522Z,61.90
2017-10-19T07:20:13.928Z,61.00
2017-10-19T07:22:42.306Z,60.20
2017-10-19T07:25:10.984Z,59.40
2017-10-19T07:27:39.367Z,58.30
2017-10-19T07:30:07.771Z,57.10
2017-10-19T07:32:36.179Z,56.50
2017-10-19T07:35:05.331Z,56.10
2017-10-19T07:37:34.000Z,56.10
2017-10-19T07:40:02.387Z,54.50
2017-10-19T07:42:30.766Z,55.20
2017-10-19T07:44:59.173Z,54.40
2017-10-19T07:47:27.553Z,54.10
2017-10-19T07:49:56.306Z,53.80
2017-10-19T07:52:24.687Z,53.70
2017-10-19T07:54:53.075Z,53.50
2017-10-19T07:57:21.489Z,53.80
2017-10-19T07:59:50.645Z,53.40
2017-10-19T08:02:19.084Z,53.40
2017-10-19T08:04:47.460Z,52.70
2017-10-19T08:07:15.843Z,52.00
2017-10-19T08:09:44.256Z,51.10
2017-10-19T08:12:12.640Z,50.80
2017-10-19T08:14:41.307Z,50.40
2017-10-19T08:17:09.692Z,50.30
2017-10-19T08:19:38.072Z,50.10
2017-10-19T08:22:06.475Z,50.60
2017-10-19T08:24:37.256Z,50.70
2017-10-19T08:27:05.893Z,51.40
2017-10-19T08:29:36.449Z,51.30
2017-10-19T08:32:04.875Z,51.30
2017-10-19T08:34:33.275Z,49.20
2017-10-19T08:37:01.657Z,50.00
2017-10-19T08:39:30.427Z,50.20
2017-10-19T08:41:58.810Z,50.70
2017-10-19T08:44:27.198Z,50.00
2017-10-19T08:46:55.604Z,49.30
2017-10-19T08:49:27.155Z,49.60
2017-10-19T08:51:56.619Z,47.70
2017-10-19T08:54:24.999Z,47.70
2017-10-19T08:56:53.376Z,47.00
2017-10-19T08:59:22.221Z,46.30
2017-10-19T09:01:50.745Z,46.10
2017-10-19T09:04:19.261Z,44.70
2017-10-19T09:06:47.637Z,45.30
2017-10-19T09:09:16.016Z,45.40
2017-10-19T09:11:44.426Z,46.00
2017-10-19T09:14:13.580Z,44.80
2017-10-19T09:16:42.175Z,44.80
2017-10-19T09:19:10.557Z,44.10
2017-10-19T09:21:38.929Z,44.10
2017-10-19T09:24:07.323Z,44.00
2017-10-19T09:26:36.487Z,43.40
2017-10-19T09:29:05.163Z,43.40
2017-10-19T09:31:33.543Z,43.90
2017-10-19T09:34:01.936Z,44.30
2017-10-19T09:36:30.355Z,43.60
2017-10-19T09:38:59.506Z,41.60
2017-10-19T09:41:28.286Z,41.60
2017-10-19T09:43:56.675Z,41.40
2017-10-19T09:46:25.055Z,41.20
2017-10-19T09:48:53.469Z,40.10
2017-10-19T09:51:22.620Z,40.40
2017-10-19T09:53:52.961Z,40.30
2017-10-19T09:56:22.138Z,40.40
2017-10-19T09:58:50.521Z,40.40
2017-10-19T10:01:18.939Z,40.50
2017-10-19T10:03:48.098Z,40.20
2017-10-19T10:06:16.611Z,40.20
2017-10-19T10:08:45.756Z,40.80
2017-10-19T10:11:14.260Z,40.80
2017-10-19T10:13:42.659Z,42.50
2017-10-19T10:16:11.815Z,41.10
2017-10-19T10:18:40.410Z,40.90
2017-10-19T10:21:08.802Z,40.20
2017-10-19T10:23:37.263Z,39.50
2017-10-19T10:26:05.667Z,39.20
2017-10-19T10:28:34.137Z,39.60
2017-10-19T10:31:02.806Z,39.70
2017-10-19T10:33:31.184Z,39.80
2017-10-19T10:35:59.591Z,39.40
2017-10-19T10:38:27.992Z,39.30
2017-10-19T10:40:57.137Z,39.50
2017-10-19T10:43:25.725Z,39.50
2017-10-19T10:45:54.096Z,38.80
2017-10-19T10:48:22.476Z,38.90
2017-10-19T10:50:50.874Z,40.00
2017-10-19T10:53:19.258Z,39.90
2017-10-19T10:55:48.023Z,38.70
2017-10-19T10:58:16.433Z,38.80
2017-10-19T11:00:47.213Z,39.00
2017-10-19T11:03:15.644Z,39.40
2017-10-19T11:05:46.588Z,39.20
2017-10-19T11:08:15.039Z,39.40
2017-10-19T11:10:43.443Z,38.80
2017-10-19T11:13:11.819Z,38.70
2017-10-19T11:15:40.223Z,39.20
2017-10-19T11:18:09.371Z,39.40
2017-10-19T11:20:37.891Z,39.40
2017-10-19T11:23:06.266Z,38.60
2017-10-19T11:25:34.638Z,39.30
2017-10-19T11:28:03.044Z,39.00
2017-10-19T11:30:32.211Z,38.50
2017-10-19T11:33:02.373Z,38.50
2017-10-19T11:35:30.759Z,39.60
2017-10-19T11:37:59.146Z,38.30
2017-10-19T11:40:27.542Z,38.90
2017-10-19T11:42:55.930Z,37.80
2017-10-19T11:45:24.795Z,38.30
2017-10-19T11:47:53.187Z,38.60
2017-10-19T11:50:21.559Z,40.20
2017-10-19T11:52:49.971Z,39.20
2017-10-19T11:55:18.351Z,40.10
2017-10-19T11:57:46.902Z,39.90
2017-10-19T12:00:15.292Z,39.20
2017-10-19T12:02:43.671Z,39.80
2017-10-19T12:05:12.103Z,40.20
2017-10-19T12:07:40.479Z,39.30
2017-10-19T12:10:09.203Z,40.00
2017-10-19T12:12:37.582Z,39.70
2017-10-19T12:15:05.959Z,40.60
2017-10-19T12:17:34.354Z,41.90
2017-10-19T12:20:02.734Z,42.10
2017-10-19T12:22:31.402Z,41.40
2017-10-19T12:24:59.768Z,41.70
2017-10-19T12:27:28.147Z,43.00
2017-10-19T12:29:56.559Z,43.50
2017-10-19T12:32:24.936Z,43.20
2017-10-19T12:34:53.619Z,43.60
2017-10-19T12:37:21.999Z,43.60
2017-10-19T12:39:50.387Z,42.50
2017-10-19T12:42:18.805Z,43.50
2017-10-19T12:44:47.178Z,42.10
2017-10-19T12:47:15.604Z,42.90
2017-10-19T12:49:43.977Z,42.40
2017-10-19T12:52:12.367Z,42.80
2017-10-19T12:54:40.772Z,44.70
2017-10-19T12:57:09.914Z,42.80
2017-10-19T12:59:38.382Z,42.70
2017-10-19T13:02:06.786Z,42.80
2017-10-19T13:04:35.167Z,43.20
2017-10-19T13:07:03.571Z,43.30
2017-10-19T13:09:31.949Z,43.40
2017-10-19T13:12:00.606Z,44.60
2017-10-19T13:14:28.982Z,43.90
2017-10-19T13:16:57.362Z,44.40
2017-10-19T13:19:25.763Z,45.00
2017-10-19T13:21:54.222Z,46.00
2017-10-19T13:24:22.663Z,46.30
2017-10-19T13:26:51.058Z,47.40
2017-10-19T13:29:19.437Z,47.70
2017-10-19T13:31:47.896Z,46.80
2017-10-19T13:34:17.036Z,48.60
2017-10-19T13:36:45.514Z,48.60
2017-10-19T13:39:13.895Z,49.80
2017-10-19T13:41:42.332Z,50.70
2017-10-19T13:44:11.496Z,52.80
2017-10-19T13:46:39.868Z,52.80
2017-10-19T13:49:08.314Z,53.10
2017-10-19T13:51:36.726Z,52.60
2017-10-19T13:54:05.124Z,54.10
2017-10-19T13:56:34.292Z,56.10
2017-10-19T13:59:02.679Z,55.50
2017-10-19T14:01:31.242Z,55.60
2017-10-19T14:03:59.620Z,56.30
2017-10-19T14:06:27.999Z,56.70
2017-10-19T14:08:56.420Z,57.30
2017-10-19T14:11:25.568Z,58.40
2017-10-19T14:13:53.983Z,58.40
2017-10-19T14:16:22.385Z,59.60
2017-10-19T14:18:51.575Z,60.30
2017-10-19T14:21:20.727Z,60.40
2017-10-19T14:23:49.139Z,60.40
2017-10-19T14:26:17.574Z,61.80
2017-10-19T14:28:45.987Z,62.20
2017-10-19T14:31:14.386Z,61.90
2017-10-19T14:33:43.564Z,63.20
2017-10-19T14:36:11.961Z,63.20
2017-10-19T14:38:41.164Z,63.10
2017-10-19T14:41:10.316Z,62.80
2017-10-19T14:43:39.001Z,62.80
2017-10-19T14:46:07.403Z,63.60
2017-10-19T14:48:35.823Z,64.00
2017-10-19T14:51:04.230Z,64.90
2017-10-19T14:53:32.623Z,65.40
2017-10-19T14:56:01.044Z,65.80
2017-10-19T14:58:30.296Z,65.20
2017-10-19T15:00:58.695Z,65.20
2017-10-19T15:03:27.076Z,65.20
2017-10-19T15:05:55.489Z,66.10
2017-10-19T15:08:23.884Z,67.10
2017-10-19T15:10:52.292Z,68.30
2017-10-19T15:13:20.670Z,68.90
2017-10-19T15:15:49.074Z,69.80
2017-10-19T15:18:17.459Z,70.10
2017-10-19T15:20:46.827Z,70.40
2017-10-19T15:23:15.228Z,70.40
2017-10-19T15:25:43.611Z,71.00
2017-10-19T15:28:12.729Z,71.10
2017-10-19T15:30:41.136Z,71.80
2017-10-19T15:33:09.952Z,71.50
2017-10-19T15:35:38.343Z,71.90
2017-10-19T15:38:06.740Z,72.00
2017-10-19T15:40:35.911Z,73.70
2017-10-19T15:43:04.414Z,73.50
2017-10-19T15:48:21.056Z,74.80
2017-10-19T15:51:07.708Z,75.60
2017-10-19T15:53:36.104Z,76.80
2017-10-19T15:56:04.523Z,77.50
2017-10-19T15:58:32.945Z,78.50
2017-10-19T16:04:11.984Z,82.10
2017-10-19T16:06:40.584Z,81.80
2017-10-19T16:22:13.437Z,85.20
2017-10-19T16:24:42.239Z,85.20
2017-10-19T16:27:11.407Z,85.00
2017-10-19T16:29:41.233Z,85.50
2017-10-19T16:32:10.963Z,85.90
2017-10-19T16:34:41.139Z,86.50
2017-10-19T16:37:11.988Z,86.70
2017-10-19T16:39:41.344Z,87.20
2017-10-19T16:42:11.455Z,87.40
2017-10-19T16:44:41.816Z,88.30
2017-10-19T16:47:11.908Z,88.60
2017-10-19T16:49:41.097Z,90.00
2017-10-19T16:52:10.909Z,90.00
2017-10-19T16:54:40.794Z,90.20
2017-10-19T16:57:10.850Z,90.30
2017-10-19T16:59:41.058Z,90.50
2017-10-19T17:02:10.336Z,90.70
2017-10-19T17:04:38.791Z,90.70
2017-10-19T17:07:07.193Z,90.70
2017-10-19T17:09:35.591Z,90.60
2017-10-19T17:12:04.770Z,90.70
2017-10-19T17:14:33.162Z,90.60
2017-10-19T17:17:07.224Z,90.30
2017-10-19T17:19:35.619Z,90.50
2017-10-19T17:22:05.353Z,90.00
2017-10-19T17:24:42.337Z,90.30
2017-10-19T17:27:21.570Z,90.30
2017-10-19T17:30:01.123Z,90.40
2017-10-19T17:32:37.946Z,90.40
2017-10-19T17:35:11.935Z,90.60
2017-10-19T17:37:48.113Z,90.50
2017-10-19T17:40:22.925Z,90.50
2017-10-19T17:42:59.884Z,90.70
2017-10-19T17:45:36.497Z,90.80
2017-10-19T17:48:12.732Z,90.80
2017-10-19T17:50:47.667Z,90.70
2017-10-19T17:53:22.548Z,91.10
2017-10-19T17:55:59.538Z,91.20
2017-10-19T17:58:32.225Z,91.40
2017-10-19T18:01:09.111Z,91.40
2017-10-19T18:03:44.158Z,91.60
2017-10-19T18:06:20.621Z,91.80
2017-10-19T18:08:50.951Z,91.70
2017-10-19T18:11:25.556Z,92.00
2017-10-19T18:14:00.263Z,92.10
2017-10-19T18:16:30.114Z,92.40
2017-10-19T18:19:05.088Z,92.60
2017-10-19T18:21:40.399Z,92.80
2017-10-19T18:24:19.100Z,93.10
2017-10-19T18:27:06.839Z,93.20
2017-10-19T18:29:50.080Z,93.40
2017-10-19T18:32:23.965Z,93.90
2017-10-19T18:34:53.742Z,93.90
2017-10-19T18:37:24.182Z,94.10
2017-10-19T18:39:58.993Z,94.20
2017-10-19T18:42:32.610Z,94.40
2017-10-19T18:45:20.809Z,94.30
2017-10-19T18:48:02.879Z,94.60
2017-10-19T18:50:39.587Z,95.00
2017-10-19T18:53:09.518Z,95.30
2017-10-19T18:55:39.848Z,95.90
2017-10-19T18:58:11.208Z,95.80
2017-10-19T19:00:41.224Z,95.90
2017-10-19T19:06:31.888Z,96.10
2017-10-19T19:09:01.590Z,96.20
2017-10-19T19:11:30.130Z,96.10
2017-10-19T19:13:58.534Z,96.10
2017-10-19T19:16:27.621Z,96.00
2017-10-19T19:18:56.097Z,96.00
2017-10-19T19:21:24.726Z,95.90
2017-10-19T19:23:53.155Z,96.30
2017-10-19T19:26:21.595Z,96.30
2017-10-19T19:28:50.746Z,96.20
2017-10-19T19:31:20.559Z,96.20
2017-10-19T19:33:49.703Z,96.30
2017-10-19T19:36:45.489Z,96.80
2017-10-19T19:39:15.739Z,97.10
2017-10-19T19:41:49.222Z,97.30
2017-10-19T19:44:23.072Z,97.50
2017-10-19T19:46:55.433Z,97.60
2017-10-19T19:49:35.954Z,97.60
2017-10-19T19:52:06.569Z,97.90
2017-10-19T19:57:32.271Z,97.60
2017-10-19T20:00:05.558Z,97.30
2017-10-19T20:02:41.152Z,97.20
2017-10-19T20:05:18.579Z,97.20
2017-10-19T20:07:50.385Z,97.50
2017-10-19T20:10:19.360Z,97.80
2017-10-19T20:12:57.670Z,97.90
2017-10-19T20:15:28.185Z,98.50
2017-10-19T20:17:58.188Z,98.50
2017-10-19T20:20:29.737Z,98.70
2017-10-19T20:22:59.286Z,98.80
2017-10-19T20:25:33.609Z,98.50
2017-10-19T20:28:14.066Z,98.40
2017-10-19T20:30:42.541Z,98.30
2017-10-19T20:33:10.924Z,98.50
2017-10-19T20:35:39.348Z,98.50
2017-10-19T20:38:08.490Z,98.10
2017-10-19T20:40:37.901Z,98.00
2017-10-19T20:43:06.676Z,97.90
2017-10-19T20:45:35.063Z,97.80
2017-10-19T20:48:03.508Z,98.10
2017-10-19T20:50:33.225Z,98.50
2017-10-19T20:53:03.235Z,98.50
2017-10-19T20:55:31.817Z,98.50
2017-10-19T20:58:00.262Z,98.40
2017-10-19T21:00:28.692Z,98.20
2017-10-19T21:02:57.083Z,98.00
2017-10-19T21:05:34.498Z,97.70
2017-10-19T21:08:04.844Z,97.50
2017-10-19T21:10:33.957Z,97.40
2017-10-19T21:13:03.256Z,98.00
2017-10-19T21:18:43.787Z,98.50
2017-10-19T21:21:12.579Z,99.20
2017-10-19T21:26:37.593Z,99.50
2017-10-19T21:54:18.899Z,99.20
2017-10-19T22:03:21.142Z,99.40
2017-10-19T22:05:56.176Z,99.70
2017-10-19T22:08:27.131Z,99.30
2017-10-19T22:11:27.926Z,99.10
2017-10-19T22:20:19.820Z,99.40
2017-10-19T22:22:53.575Z,99.50
2017-10-19T22:28:50.091Z,99.20
2017-10-19T22:31:39.178Z,99.40
2017-10-19T22:44:13.515Z,99.50
2017-10-19T22:56:25.629Z,99.40
2017-10-19T22:59:05.686Z,99.90
2017-10-19T23:07:55.884Z,99.80
2017-10-19T23:10:24.259Z,99.60
2017-10-19T23:12:52.640Z,99.60
2017-10-19T23:15:21.048Z,99.40
2017-10-19T23:17:49.437Z,99.60
2017-10-19T23:20:18.796Z,99.90
2017-10-19T23:22:47.184Z,99.90
2017-10-19T23:25:15.653Z,99.90
2017-10-19T23:27:44.059Z,99.90
2017-10-19T23:30:12.440Z,99.90
2017-10-19T23:32:40.995Z,99.90
2017-10-19T23:35:09.380Z,99.90
2017-10-19T23:37:37.763Z,99.90
2017-10-19T23:40:06.172Z,99.90
2017-10-19T23:42:35.320Z,99.90
2017-10-19T23:45:03.907Z,99.90
2017-10-19T23:47:32.292Z,99.90
2017-10-19T23:50:00.679Z,99.90
2017-10-19T23:52:29.083Z,99.90
2017-10-19T23:54:57.466Z,99.90
2017-10-19T23:57:26.819Z,99.90
2017-10-19T23:59:55.192Z,99.90
